Time;durP1;ratioP1;P1;durP2;ratioP2;P2;SDS_P1;SDS_P2;PMS_P1;PMS_P2;Temp;Humidity;BMP_temperature;BMP_pressure;BME280_temperature;BME280_humidity;BME280_pressure;Samples;Min_cycle;Max_cycle;Signal;HPM_P1;HPM_P2
2021/12/13 00:01:34;;;;;;;9.17;5.23;;;;;;;1.79;91.49;95660.68;1781840;80;20995;-73
2021/12/13 00:04:12;;;;;;;7.20;4.93;;;;;;;1.77;91.48;95662.41;1781998;80;21094;-73
2021/12/13 00:06:47;;;;;;;6.17;4.20;;;;;;;1.80;91.67;95663.75;1782344;80;21518;-73
2021/12/13 00:09:22;;;;;;;6.23;4.57;;;;;;;1.69;91.85;95659.69;1782081;80;21452;-73
2021/12/13 00:11:53;;;;;;;7.03;4.33;;;;;;;1.75;91.88;95670.61;1781819;80;21001;-73
2021/12/13 00:14:27;;;;;;;8.67;5.67;;;;;;;1.73;91.86;95668.84;1782320;80;21073;-73
2021/12/13 00:17:12;;;;;;;;;;;;;;;1.70;91.85;95669.22;1784763;80;21511;-73
2021/12/13 00:19:58;;;;;;;6.40;4.67;;;;;;;1.69;91.88;95668.36;1781247;80;20082;-72
2021/12/13 00:22:36;;;;;;;7.13;4.77;;;;;;;1.65;91.91;95667.84;1781873;80;21128;-72
2021/12/13 00:25:17;;;;;;;7.97;5.03;;;;;;;1.62;91.90;95678.20;1781955;80;21025;-72
2021/12/13 00:27:49;;;;;;;8.67;5.03;;;;;;;1.58;92.03;95685.92;1781878;80;21009;-72
2021/12/13 00:30:47;;;;;;;8.07;5.80;;;;;;;1.58;92.08;95698.48;1781774;80;21078;-72
2021/12/13 00:34:12;;;;;;;8.67;5.57;;;;;;;1.50;92.25;95710.48;1781950;80;21086;-72
2021/12/13 00:36:50;;;;;;;7.70;5.07;;;;;;;1.38;92.47;95709.83;1781583;80;21082;-73
2021/12/13 00:39:22;;;;;;;6.73;5.00;;;;;;;1.28;92.71;95710.50;1781746;80;21026;-73
2021/12/13 00:41:50;;;;;;;7.57;4.97;;;;;;;1.25;92.73;95716.95;1782246;80;21487;-72
2021/12/13 00:44:28;;;;;;;6.23;4.13;;;;;;;1.23;92.66;95710.84;1781681;80;21050;-72
2021/12/13 00:46:57;;;;;;;6.90;4.00;;;;;;;1.21;92.59;95718.63;1781832;80;21545;-73
2021/12/13 00:49:29;;;;;;;8.73;4.70;;;;;;;1.22;92.71;95723.39;1782285;80;21594;-73
2021/12/13 00:51:58;;;;;;;5.13;2.77;;;;;;;1.25;92.48;95726.92;1781910;80;21552;-73
2021/12/13 00:54:33;;;;;;;6.67;3.87;;;;;;;1.26;92.65;95720.89;1781674;80;21030;-73
2021/12/13 00:57:06;;;;;;;7.13;4.43;;;;;;;1.19;92.40;95729.84;1781572;80;21014;-73
2021/12/13 00:59:44;;;;;;;4.22;3.00;;;;;;;1.19;92.66;95728.11;1782420;80;20998;-73
2021/12/13 01:02:22;;;;;;;8.20;4.47;;;;;;;1.26;92.60;95724.80;1781759;80;21002;-73
2021/12/13 01:05:14;;;;;;;8.00;4.47;;;;;;;1.15;92.66;95736.69;1781609;80;21560;-72
2021/12/13 01:08:32;;;;;;;9.20;5.90;;;;;;;1.13;92.33;95737.07;1782144;80;20979;-72
2021/12/13 01:11:13;;;;;;;7.87;4.20;;;;;;;1.12;92.46;95738.36;1781570;80;21006;-72
2021/12/13 01:13:45;;;;;;;8.77;5.20;;;;;;;1.16;92.61;95738.86;1782313;80;21488;-72
2021/12/13 01:17:10;;;;;;;11.60;6.10;;;;;;;1.13;92.48;95739.67;1782215;80;21002;-72
2021/12/13 01:19:25;;;;;;;11.97;6.33;;;;;;;1.15;92.50;95742.31;1752383;80;20998;-72
2021/12/13 01:21:42;;;;;;;8.60;5.70;;;;;;;1.16;92.38;95741.05;1778252;80;21022;-72
2021/12/13 01:24:30;;;;;;;9.87;5.80;;;;;;;1.11;92.24;95741.78;1782238;80;21014;-72
2021/12/13 01:26:52;;;;;;;12.53;6.63;;;;;;;1.06;92.22;95737.82;1779962;80;21009;-73
2021/12/13 01:29:24;;;;;;;12.50;7.20;;;;;;;1.04;92.20;95736.91;1782105;80;21073;-73
2021/12/13 01:31:56;;;;;;;10.30;6.27;;;;;;;1.00;92.19;95741.14;1782433;80;21117;-73
2021/12/13 01:34:25;;;;;;;12.70;6.83;;;;;;;0.95;92.09;95744.07;1782033;80;21125;-73
2021/12/13 01:37:07;;;;;;;13.13;7.27;;;;;;;0.90;92.20;95748.30;1781741;80;21030;-72
2021/12/13 01:39:29;;;;;;;12.53;7.40;;;;;;;0.93;92.26;95751.38;1780669;80;21046;-73
2021/12/13 01:42:10;;;;;;;12.23;7.83;;;;;;;0.85;92.00;95753.39;1782244;80;21010;-73
2021/12/13 01:44:44;;;;;;;14.57;7.60;;;;;;;0.82;92.08;95763.72;1781498;80;21121;-72
2021/12/13 01:47:22;;;;;;;10.80;6.43;;;;;;;0.77;92.05;95759.28;1782081;80;21066;-72
2021/12/13 01:49:54;;;;;;;14.03;8.47;;;;;;;0.71;91.94;95769.13;1781169;80;21058;-72
2021/12/13 01:52:31;;;;;;;13.80;7.43;;;;;;;0.65;92.10;95767.67;1782095;80;20998;-72
2021/12/13 01:55:03;;;;;;;9.90;5.20;;;;;;;0.67;92.00;95779.41;1782054;80;21529;-72
2021/12/13 01:58:18;;;;;;;12.33;6.70;;;;;;;0.57;91.83;95774.42;1782150;80;21098;-72
2021/12/13 02:00:21;;;;;;;13.67;8.17;;;;;;;0.55;92.15;95774.80;1778450;80;21065;-71
2021/12/13 02:02:54;;;;;;;14.45;8.55;;;;;;;0.53;92.38;95776.08;1782104;80;21042;-72
2021/12/13 02:05:28;;;;;;;15.98;8.40;;;;;;;0.53;92.35;95776.08;1782330;80;21071;-72
2021/12/13 02:08:10;;;;;;;16.47;9.00;;;;;;;0.57;92.35;95781.78;1782213;80;21057;-72
2021/12/13 02:10:44;;;;;;;16.10;8.80;;;;;;;0.58;92.20;95783.55;1782071;80;21066;-72
2021/12/13 02:13:21;;;;;;;18.33;9.63;;;;;;;0.55;92.13;95783.45;1782433;80;21058;-73
2021/12/13 02:18:43;;;;;;;17.03;8.67;;;;;;;0.60;92.21;95788.33;1782282;80;21497;-73
2021/12/13 02:21:23;;;;;;;17.63;9.10;;;;;;;0.56;91.75;95784.36;1782160;80;20986;-72
2021/12/13 02:23:50;;;;;;;16.20;8.93;;;;;;;0.52;91.74;95782.09;1781801;80;21034;-72
2021/12/13 02:26:18;;;;;;;17.83;10.07;;;;;;;0.47;91.69;95785.00;1782153;80;20990;-72
2021/12/13 02:28:49;;;;;;;16.70;9.53;;;;;;;0.42;92.01;95789.22;1782264;80;21002;-73
2021/12/13 02:31:25;;;;;;;15.70;8.27;;;;;;;0.42;91.90;95793.11;1782758;80;20984;-72
2021/12/13 02:33:57;;;;;;;15.37;7.67;;;;;;;0.38;91.78;95799.96;1781379;80;21110;-72
2021/12/13 02:36:28;;;;;;;16.87;8.20;;;;;;;0.37;91.76;95801.20;1783702;80;21018;-72
2021/12/13 02:39:00;;;;;;;16.57;8.13;;;;;;;0.37;91.78;95801.20;1784803;80;21018;-72
2021/12/13 02:41:30;;;;;;;11.63;6.00;;;;;;;0.35;91.84;95796.00;1784805;80;20978;-72
2021/12/13 02:44:11;;;;;;;17.17;10.03;;;;;;;0.35;91.69;95802.89;1784187;80;21045;-72
2021/12/13 02:46:39;;;;;;;16.20;9.27;;;;;;;0.32;91.94;95801.52;1782635;80;21464;-72
2021/12/13 02:49:11;;;;;;;15.40;8.60;;;;;;;0.35;92.00;95797.69;1784408;80;21025;-72
2021/12/13 02:51:43;;;;;;;16.40;9.23;;;;;;;0.35;91.89;95794.70;1785013;80;20998;-73
2021/12/13 02:54:21;;;;;;;18.00;9.07;;;;;;;0.37;92.02;95804.67;1784954;80;21006;-72
2021/12/13 02:57:12;;;;;;;18.57;8.97;;;;;;;0.39;91.95;95795.21;1784506;80;21010;-72
2021/12/13 02:59:44;;;;;;;13.83;8.23;;;;;;;0.42;91.77;95802.20;1784435;80;20963;-72
2021/12/13 03:02:25;;;;;;;19.53;9.03;;;;;;;0.39;92.22;95805.59;1783404;80;21010;-73
2021/12/13 03:04:52;;;;;;;13.57;7.57;;;;;;;0.46;92.19;95804.46;1784149;80;21563;-73
2021/12/13 03:07:31;;;;;;;18.83;9.53;;;;;;;0.50;92.17;95803.24;1784362;80;21013;-72
2021/12/13 03:10:03;;;;;;;16.70;8.87;;;;;;;0.51;92.18;95805.02;1784127;80;21559;-72
2021/12/13 03:12:30;;;;;;;12.97;7.30;;;;;;;0.57;92.24;95814.23;1784698;80;21014;-72
2021/12/13 03:15:02;;;;;;;19.03;9.80;;;;;;;0.56;92.06;95806.43;1784835;80;21030;-72
2021/12/13 03:17:39;;;;;;;16.53;8.93;;;;;;;0.56;92.08;95809.02;1784601;80;21014;-72
2021/12/13 03:20:36;;;;;;;14.07;7.63;;;;;;;0.58;91.97;95803.42;1784812;80;21540;-72
2021/12/13 03:23:49;;;;;;;16.07;8.63;;;;;;;0.57;91.79;95799.95;1784011;80;20998;-72
2021/12/13 03:26:53;;;;;;;18.00;9.53;;;;;;;0.61;91.87;95808.71;1783554;80;21543;-72
2021/12/13 03:29:25;;;;;;;15.58;9.03;;;;;;;0.63;91.93;95808.30;1784736;80;21014;-72
2021/12/13 03:31:56;;;;;;;20.10;9.93;;;;;;;0.58;91.85;95795.63;1783708;80;21010;-72
2021/12/13 03:34:31;;;;;;;19.10;10.53;;;;;;;0.58;92.14;95798.23;1784684;80;20986;-72
2021/12/13 03:37:18;;;;;;;17.33;10.73;;;;;;;0.61;92.32;95799.63;1784164;80;21022;-72
2021/12/13 03:39:52;;;;;;;16.73;9.53;;;;;;;0.60;92.38;95798.72;1784202;80;21033;-72
2021/12/13 03:42:30;;;;;;;17.80;9.13;;;;;;;0.61;92.34;95799.19;1784916;80;21039;-73
2021/12/13 03:45:02;;;;;;;16.03;8.80;;;;;;;0.54;92.52;95797.30;1784607;80;21010;-73
2021/12/13 03:47:36;;;;;;;15.13;8.60;;;;;;;0.54;92.52;95793.40;1784210;80;21051;-72
2021/12/13 03:50:09;;;;;;;18.07;9.07;;;;;;;0.50;92.66;95797.18;1784746;80;21006;-73
2021/12/13 03:52:40;;;;;;;16.65;8.48;;;;;;;0.48;92.71;95802.36;1784795;80;21061;-73
2021/12/13 03:55:10;;;;;;;11.43;6.40;;;;;;;0.40;92.93;95796.98;1784450;80;21057;-73
2021/12/13 03:57:42;;;;;;;15.20;9.13;;;;;;;0.40;93.03;95794.39;1784329;80;21022;-72
2021/12/13 04:00:12;;;;;;;14.40;7.77;;;;;;;0.46;92.98;95795.38;1784492;80;21002;-72
2021/12/13 04:02:41;;;;;;;15.37;9.10;;;;;;;0.46;92.97;95805.33;1784807;80;21049;-72
2021/12/13 04:05:16;;;;;;;19.37;9.87;;;;;;;0.49;92.97;95807.13;1784777;80;21013;-72
2021/12/13 04:07:48;;;;;;;19.73;9.57;;;;;;;0.47;93.04;95811.39;1784568;80;20999;-71
2021/12/13 04:10:22;;;;;;;30.00;16.07;;;;;;;0.43;93.19;95809.16;1783752;80;21010;-72
2021/12/13 04:12:54;;;;;;;17.23;9.93;;;;;;;0.46;93.10;95805.76;1783646;80;21018;-72
2021/12/13 04:15:57;;;;;;;16.77;9.07;;;;;;;0.48;92.90;95803.66;1784105;80;21469;-71
2021/12/13 04:18:41;;;;;;;29.03;15.50;;;;;;;0.49;92.97;95800.63;1781956;80;21042;-72
2021/12/13 04:21:05;;;;;;;91.17;43.30;;;;;;;0.52;92.97;95801.56;1781161;80;21480;-72
2021/12/13 04:23:34;;;;;;;53.03;25.80;;;;;;;0.60;93.10;95803.04;1784587;80;21001;-72
2021/12/13 04:26:04;;;;;;;18.60;9.70;;;;;;;0.63;92.97;95808.30;1784608;80;20982;-71
2021/12/13 04:28:42;;;;;;;14.40;8.53;;;;;;;0.70;93.08;95806.30;1784333;80;21097;-73
2021/12/13 04:31:14;;;;;;;16.97;8.57;;;;;;;0.72;92.80;95809.81;1784529;80;21033;-72
2021/12/13 04:33:49;;;;;;;17.80;9.50;;;;;;;0.64;92.59;95802.28;1784687;80;21047;-72
2021/12/13 04:36:30;;;;;;;14.53;8.37;;;;;;;0.64;92.55;95798.39;1783753;80;21026;-72
2021/12/13 04:39:21;;;;;;;14.30;8.53;;;;;;;0.54;92.62;95801.61;1783409;80;21090;-72
2021/12/13 04:42:05;;;;;;;14.87;8.97;;;;;;;0.52;92.73;95804.59;1784334;80;21012;-72
2021/12/13 04:44:58;;;;;;;16.90;8.60;;;;;;;0.47;92.86;95801.02;1783776;80;21546;-71
2021/12/13 04:47:37;;;;;;;20.88;8.93;;;;;;;0.48;92.87;95798.86;1784294;80;20982;-71
2021/12/13 04:50:12;;;;;;;18.43;9.27;;;;;;;0.45;92.96;95800.09;1775594;80;21520;-71
2021/12/13 04:52:39;;;;;;;15.93;9.00;;;;;;;0.43;93.05;95802.24;1784525;80;20998;-71
2021/12/13 04:55:12;;;;;;;17.83;8.67;;;;;;;0.45;93.12;95805.28;1784253;80;21025;-71
2021/12/13 04:57:40;;;;;;;18.47;8.73;;;;;;;0.49;93.13;95807.13;1783677;80;21041;-71
2021/12/13 05:00:13;;;;;;;15.87;8.77;;;;;;;0.53;93.17;95803.73;1784967;80;21330;-71
2021/12/13 05:02:47;;;;;;;15.67;8.80;;;;;;;0.54;93.23;95806.81;1784598;80;20990;-72
2021/12/13 05:05:16;;;;;;;18.33;9.13;;;;;;;0.60;93.34;95800.02;1783424;80;21026;-71
2021/12/13 05:07:48;;;;;;;14.63;8.70;;;;;;;0.69;93.27;95801.96;1784634;80;21511;-72
2021/12/13 05:10:15;;;;;;;16.57;9.03;;;;;;;0.72;93.12;95799.86;1784505;80;21575;-72
2021/12/13 05:13:03;;;;;;;21.00;9.43;;;;;;;0.72;92.96;95805.05;1784567;80;21001;-72
2021/12/13 05:15:31;;;;;;;17.80;9.10;;;;;;;0.69;92.93;95808.45;1784170;80;21053;-72
2021/12/13 05:18:01;;;;;;;16.23;9.30;;;;;;;0.67;92.94;95806.67;1784655;80;21460;-72
2021/12/13 05:20:37;;;;;;;14.10;8.07;;;;;;;0.68;92.94;95816.20;1784552;80;21072;-73
2021/12/13 05:23:11;;;;;;;15.30;8.10;;;;;;;0.67;93.05;95817.05;1784876;80;21476;-71
2021/12/13 05:25:46;;;;;;;14.20;7.47;;;;;;;0.66;93.12;95827.88;1784161;80;21014;-72
2021/12/13 05:28:21;;;;;;;14.90;7.70;;;;;;;0.66;93.28;95827.00;1784525;80;21052;-71
2021/12/13 05:30:59;;;;;;;13.87;7.70;;;;;;;0.62;93.35;95826.91;1784051;80;21022;-71
2021/12/13 05:33:30;;;;;;;15.73;8.87;;;;;;;0.66;93.37;95834.36;1784514;80;21002;-71
2021/12/13 05:36:00;;;;;;;16.10;8.43;;;;;;;0.67;93.30;95827.02;1783834;80;21532;-71
2021/12/13 05:38:35;;;;;;;13.60;8.00;;;;;;;0.71;93.33;95830.15;1782060;80;21006;-72
2021/12/13 05:41:06;;;;;;;15.83;8.27;;;;;;;0.69;93.25;95827.94;1781617;80;21559;-71
2021/12/13 05:43:48;;;;;;;13.20;7.20;;;;;;;0.70;93.26;95843.95;1782016;80;21006;-72
2021/12/13 05:46:19;;;;;;;16.03;8.97;;;;;;;0.68;93.22;95852.16;1781725;80;21014;-72
2021/12/13 05:48:56;;;;;;;16.93;9.23;;;;;;;0.70;93.13;95843.09;1782136;80;21025;-72
2021/12/13 05:51:37;;;;;;;14.07;8.20;;;;;;;0.69;93.19;95855.63;1781584;80;20998;-69
2021/12/13 05:54:30;;;;;;;16.50;8.37;;;;;;;0.66;93.13;95855.56;1780909;80;21006;-72
2021/12/13 05:57:03;;;;;;;18.65;9.95;;;;;;;0.66;93.10;95868.12;1780566;80;21531;-69
2021/12/13 05:59:53;;;;;;;17.97;10.77;;;;;;;0.70;93.03;95869.06;1781139;80;21108;-71
2021/12/13 06:03:00;;;;;;;18.13;9.67;;;;;;;0.72;93.00;95870.84;1781020;80;21555;-75
2021/12/13 06:05:41;;;;;;;21.70;10.47;;;;;;;0.68;92.78;95875.53;1766750;80;21026;-73
2021/12/13 06:08:16;;;;;;;20.40;9.97;;;;;;;0.68;92.69;95874.62;1781748;80;20975;-71
2021/12/13 06:10:57;;;;;;;18.37;9.93;;;;;;;0.66;92.61;95878.94;1781400;80;20971;-70
2021/12/13 06:13:50;;;;;;;17.70;9.20;;;;;;;0.64;92.50;95882.78;1781704;80;21026;-75
2021/12/13 06:16:27;;;;;;;15.93;8.33;;;;;;;0.58;92.29;95889.10;1781967;80;20951;-68
2021/12/13 06:19:21;;;;;;;19.07;9.73;;;;;;;0.56;92.35;95896.00;1782124;80;21045;-69
2021/12/13 06:22:17;;;;;;;20.85;10.48;;;;;;;0.51;92.27;95891.12;1780911;80;21524;-68
2021/12/13 06:24:52;;;;;;;20.83;10.90;;;;;;;0.47;92.19;95896.64;1780871;80;21015;-73
2021/12/13 06:27:23;;;;;;;17.43;9.37;;;;;;;0.49;92.19;95897.98;1781343;80;21480;-74
2021/12/13 06:30:23;;;;;;;19.40;10.70;;;;;;;0.43;92.03;95905.20;1782048;80;21058;-71
2021/12/13 06:33:01;;;;;;;20.80;10.40;;;;;;;0.44;91.90;95913.44;1781291;80;21010;-69
2021/12/13 06:35:53;;;;;;;21.70;11.43;;;;;;;0.33;91.71;95917.49;1781929;80;21018;-73
2021/12/13 06:38:34;;;;;;;23.90;10.73;;;;;;;0.34;91.83;95915.34;1781966;80;21496;-76
2021/12/13 06:41:21;;;;;;;19.07;10.67;;;;;;;0.35;91.82;95918.39;1760328;80;21066;-70
2021/12/13 06:43:59;;;;;;;15.83;8.50;;;;;;;0.33;91.85;95920.09;1782021;80;21018;-72
2021/12/13 06:46:46;;;;;;;19.67;9.83;;;;;;;0.36;91.74;95925.35;1781481;80;21029;-75
2021/12/13 06:49:33;;;;;;;23.07;11.20;;;;;;;0.33;91.69;95927.45;1781746;80;21523;-71
2021/12/13 06:52:14;;;;;;;31.33;15.53;;;;;;;0.33;91.71;95931.77;1781821;80;21011;-70
2021/12/13 06:54:46;;;;;;;19.10;10.47;;;;;;;0.37;91.66;95933.16;1781833;80;21046;-70
2021/12/13 06:57:38;;;;;;;22.40;12.20;;;;;;;0.32;91.41;95927.39;1779871;80;21003;-68
2021/12/13 07:00:22;;;;;;;26.77;13.17;;;;;;;0.32;91.50;95932.59;1781815;80;21639;-71
2021/12/13 07:03:00;;;;;;;25.53;12.47;;;;;;;0.32;91.51;95936.48;1781772;80;21053;-71
2021/12/13 07:05:35;;;;;;;90.50;43.17;;;;;;;0.26;91.32;95930.72;1782194;80;21121;-71
2021/12/13 07:08:07;;;;;;;29.53;14.27;;;;;;;0.24;91.25;95938.00;1782173;80;21058;-71
2021/12/13 07:10:57;;;;;;;31.33;15.43;;;;;;;0.24;91.52;95945.36;1782177;80;20955;-74
2021/12/13 07:13:35;;;;;;;23.60;10.87;;;;;;;0.11;91.68;95943.28;1782156;80;20994;-69
2021/12/13 07:16:16;;;;;;;18.47;8.20;;;;;;;0.13;91.77;95950.28;1781892;80;21110;-68
2021/12/13 07:19:11;;;;;;;24.63;11.40;;;;;;;0.14;91.94;95951.14;1782304;80;21445;-70
2021/12/13 07:22:04;;;;;;;23.30;11.10;;;;;;;0.18;91.97;95940.90;1782247;80;21034;-67
2021/12/13 07:24:42;;;;;;;28.10;13.47;;;;;;;0.14;91.91;95939.05;1782040;80;20990;-67
2021/12/13 07:27:30;;;;;;;25.93;11.30;;;;;;;0.14;91.94;95936.88;1782086;80;20976;-66
2021/12/13 07:30:11;;;;;;;26.73;12.20;;;;;;;0.14;92.05;95942.06;1782123;80;21086;-68
2021/12/13 07:32:54;;;;;;;27.00;13.03;;;;;;;0.18;92.12;95938.73;1775977;80;21007;-68
2021/12/13 07:35:32;;;;;;;24.63;11.97;;;;;;;0.23;92.17;95944.02;1782474;80;21616;-68
2021/12/13 07:38:19;;;;;;;21.90;11.57;;;;;;;0.24;92.12;95945.36;1783522;80;21023;-69
2021/12/13 07:40:51;;;;;;;17.90;9.07;;;;;;;0.25;92.18;95955.32;1784714;80;20991;-68
2021/12/13 07:43:30;;;;;;;29.17;14.87;;;;;;;0.25;92.22;95948.41;1784000;80;20987;-67
2021/12/13 07:46:12;;;;;;;24.57;12.03;;;;;;;0.28;92.25;95947.22;1781331;80;21041;-69
2021/12/13 07:48:45;;;;;;;19.00;10.90;;;;;;;0.31;92.31;95945.98;1784142;80;20999;-69
2021/12/13 07:51:25;;;;;;;20.67;11.90;;;;;;;0.33;92.37;95949.94;1782488;80;21116;-69
2021/12/13 07:54:02;;;;;;;16.73;8.93;;;;;;;0.38;92.40;95949.21;1784824;80;21532;-71
2021/12/13 07:56:43;;;;;;;21.03;11.73;;;;;;;0.38;92.42;95953.53;1782972;80;21057;-68
2021/12/13 07:59:30;;;;;;;23.13;11.60;;;;;;;0.45;92.42;95959.74;1784494;80;21052;-72
2021/12/13 08:02:05;;;;;;;21.00;11.10;;;;;;;0.55;92.41;95964.33;1784639;80;21476;-72
2021/12/13 08:04:37;;;;;;;20.87;11.83;;;;;;;0.59;92.31;95957.09;1784545;80;21010;-71
2021/12/13 08:07:21;;;;;;;22.57;11.17;;;;;;;0.67;92.29;95962.48;1771983;80;21547;-69
2021/12/13 08:09:56;;;;;;;19.00;11.10;;;;;;;0.67;92.16;95965.95;1784242;80;21018;-77
2021/12/13 08:12:37;;;;;;;20.80;10.30;;;;;;;0.72;92.13;95962.17;1783050;80;20970;-67
2021/12/13 08:15:18;;;;;;;21.80;11.23;;;;;;;0.69;91.93;95964.70;1784775;80;21113;-71
2021/12/13 08:17:55;;;;;;;20.60;10.17;;;;;;;0.78;91.94;95964.52;1784678;80;21021;-68
2021/12/13 08:20:27;;;;;;;20.70;10.73;;;;;;;0.77;91.89;95974.43;1784520;80;21006;-72
2021/12/13 08:22:56;;;;;;;19.37;11.00;;;;;;;0.81;91.86;95978.88;1784711;80;21022;-71
2021/12/13 08:25:28;;;;;;;20.03;11.47;;;;;;;0.83;91.73;95972.39;1784472;80;21033;-75
2021/12/13 08:28:05;;;;;;;20.07;12.30;;;;;;;0.82;91.68;95970.22;1783029;80;21057;-70
2021/12/13 08:30:54;;;;;;;20.80;11.37;;;;;;;0.87;91.73;95975.54;1784110;80;21042;-71
2021/12/13 08:33:43;;;;;;;23.67;12.17;;;;;;;0.92;91.67;95977.83;1784439;80;20982;-74
2021/12/13 08:36:28;;;;;;;26.27;13.97;;;;;;;0.98;91.63;95979.30;1784517;80;20966;-72
2021/12/13 08:39:15;;;;;;;23.17;12.40;;;;;;;1.00;91.63;95980.61;1784392;80;21656;-72
2021/12/13 08:41:50;;;;;;;22.47;12.20;;;;;;;1.03;91.64;95984.58;1783971;80;21547;-71
2021/12/13 08:44:21;;;;;;;18.47;10.07;;;;;;;1.08;91.62;95983.87;1784721;80;20967;-77
2021/12/13 08:47:00;;;;;;;28.07;14.40;;;;;;;1.14;91.37;95981.84;1784252;80;21057;-75
2021/12/13 08:49:35;;;;;;;19.43;10.43;;;;;;;1.16;91.27;95983.15;1784542;80;20999;-75
2021/12/13 08:52:13;;;;;;;20.47;11.77;;;;;;;1.17;91.18;95979.30;1784865;80;21105;-72
2021/12/13 08:54:48;;;;;;;20.33;11.37;;;;;;;1.20;91.11;95984.56;1783423;80;21054;-76
2021/12/13 08:57:30;;;;;;;21.27;11.03;;;;;;;1.18;90.96;95986.24;1784480;80;20994;-79
2021/12/13 09:00:00;;;;;;;22.83;11.77;;;;;;;1.15;90.97;95983.58;1776156;80;20982;-74
2021/12/13 09:02:34;;;;;;;19.33;9.90;;;;;;;1.13;90.91;95986.55;1784486;80;21053;-77
2021/12/13 09:05:09;;;;;;;21.23;10.40;;;;;;;1.05;91.14;95982.91;1783942;80;21053;-78
2021/12/13 09:07:49;;;;;;;18.57;10.00;;;;;;;1.05;91.09;95982.48;1784559;80;21591;-78
2021/12/13 09:10:16;;;;;;;19.30;10.53;;;;;;;1.09;91.27;95987.34;1780445;80;21010;-78
2021/12/13 09:12:45;;;;;;;18.07;9.53;;;;;;;1.14;91.19;95985.73;1784048;80;21630;-83
2021/12/13 09:15:27;;;;;;;16.90;9.10;;;;;;;1.14;91.26;95984.44;1758055;80;21064;-83
2021/12/13 09:17:54;;;;;;;16.77;9.63;;;;;;;1.16;91.29;95983.15;1744355;80;21014;-74
2021/12/13 09:20:35;;;;;;;22.70;12.33;;;;;;;1.14;91.25;95985.73;1763064;80;21031;-73
2021/12/13 09:23:10;;;;;;;16.50;9.60;;;;;;;1.15;91.29;95984.01;1745221;82;21478;-68
2021/12/13 09:25:52;;;;;;;20.43;11.53;;;;;;;1.17;91.15;95983.63;1747534;82;21027;-66
2021/12/13 09:28:27;;;;;;;22.00;12.13;;;;;;;1.20;91.16;95985.87;1744934;82;21015;-71
2021/12/13 09:31:05;;;;;;;22.93;12.90;;;;;;;1.20;91.15;95980.67;1756288;81;21039;-68
2021/12/13 09:33:36;;;;;;;21.17;12.00;;;;;;;1.17;91.17;95982.33;1739774;82;21003;-69
2021/12/13 09:36:14;;;;;;;21.80;11.57;;;;;;;1.13;91.23;95981.36;1739611;82;21023;-72
2021/12/13 09:39:00;;;;;;;22.63;12.30;;;;;;;1.13;91.27;95979.19;1731743;82;21047;-70
2021/12/13 09:41:57;;;;;;;20.17;10.87;;;;;;;1.11;91.34;95981.77;1727101;82;20972;-74
2021/12/13 09:44:31;;;;;;;13.50;6.87;;;;;;;1.07;91.42;95986.42;1723092;82;21065;-68
2021/12/13 09:47:08;;;;;;;21.17;10.47;;;;;;;1.10;91.32;95984.32;1730263;82;21047;-69
2021/12/13 09:49:45;;;;;;;18.37;10.30;;;;;;;1.11;91.37;95983.47;1725337;82;21011;-71
2021/12/13 09:52:35;;;;;;;16.53;9.60;;;;;;;1.07;91.35;95983.39;1727858;81;22486;-72
2021/12/13 09:55:16;;;;;;;24.17;11.93;;;;;;;0.99;91.39;95982.77;1733125;82;21092;-67
2021/12/13 09:58:06;;;;;;;26.27;12.80;;;;;;;0.98;91.38;95984.50;1770335;80;21432;-72
2021/12/13 10:00:41;;;;;;;23.37;11.87;;;;;;;0.95;91.35;95980.92;1744383;82;21173;-74
2021/12/13 10:03:20;;;;;;;24.97;12.83;;;;;;;0.94;91.47;95982.65;1770182;81;21046;-73
2021/12/13 10:05:51;;;;;;;21.90;11.93;;;;;;;0.93;91.42;95983.47;1764876;81;21611;-74
2021/12/13 10:08:23;;;;;;;24.20;11.73;;;;;;;0.85;91.64;95975.48;1765686;81;20988;-73
2021/12/13 10:11:02;;;;;;;25.73;12.77;;;;;;;0.83;91.60;95976.30;1765133;81;21576;-72
2021/12/13 10:13:33;;;;;;;23.23;11.67;;;;;;;0.77;91.68;95980.92;1764438;81;21627;-70
2021/12/13 10:16:08;;;;;;;21.50;11.33;;;;;;;0.77;91.73;95991.73;1765627;81;20995;-73
2021/12/13 10:18:39;;;;;;;22.00;12.63;;;;;;;0.73;91.66;95992.09;1765018;81;21090;-72
2021/12/13 10:21:24;;;;;;;23.40;11.50;;;;;;;0.69;91.75;95986.35;1766027;81;21035;-73
2021/12/13 10:24:17;;;;;;;20.63;10.73;;;;;;;0.68;91.83;95991.09;1745486;81;21113;-73
2021/12/13 10:26:45;;;;;;;22.95;11.75;;;;;;;0.66;91.79;95988.00;1775209;81;21014;-73
2021/12/13 10:29:15;;;;;;;24.17;12.87;;;;;;;0.66;91.78;95990.60;1775881;81;21007;-73
2021/12/13 10:32:00;;;;;;;22.80;12.47;;;;;;;0.62;91.93;95986.59;1778856;80;21523;-72
2021/12/13 10:34:32;;;;;;;25.03;11.27;;;;;;;0.66;91.91;95984.11;1775316;80;21006;-73
2021/12/13 10:37:13;;;;;;;20.63;10.57;;;;;;;0.65;91.95;95984.50;1776369;80;21006;-72
2021/12/13 10:39:45;;;;;;;21.27;11.47;;;;;;;0.61;92.15;95979.66;1774859;80;21066;-72
2021/12/13 10:42:19;;;;;;;22.17;11.27;;;;;;;0.66;92.06;95981.51;1773845;81;21079;-72
2021/12/13 10:44:47;;;;;;;21.80;10.80;;;;;;;0.67;92.09;95975.47;1746691;82;21095;-72
2021/12/13 10:47:19;;;;;;;24.03;12.73;;;;;;;0.74;92.07;95974.36;1773353;81;21065;-73
2021/12/13 10:49:49;;;;;;;21.07;10.77;;;;;;;0.78;91.96;95967.11;1746733;82;21027;-73
2021/12/13 10:52:36;;;;;;;18.63;10.23;;;;;;;0.82;91.73;95962.86;1774024;80;21087;-73
2021/12/13 10:55:20;;;;;;;21.30;11.70;;;;;;;0.83;91.59;95966.80;1746443;82;21031;-73
2021/12/13 10:57:49;;;;;;;20.03;12.17;;;;;;;0.86;91.65;95972.07;1772518;80;21134;-71
2021/12/13 11:00:27;;;;;;;19.40;11.33;;;;;;;0.91;91.63;95969.59;1772939;81;21037;-71
2021/12/13 11:02:59;;;;;;;21.87;10.70;;;;;;;0.99;91.51;95969.34;1745846;82;21530;-71
2021/12/13 11:05:28;;;;;;;18.23;9.93;;;;;;;1.02;91.32;95969.42;1771433;81;21049;-70
2021/12/13 11:07:59;;;;;;;19.57;10.80;;;;;;;1.02;91.09;95962.92;1744974;82;21081;-71
2021/12/13 11:10:35;;;;;;;17.30;9.30;;;;;;;1.09;91.21;95961.36;1772258;81;21053;-70
2021/12/13 11:13:04;;;;;;;19.13;10.43;;;;;;;1.13;91.04;95964.89;1746544;82;21032;-72
2021/12/13 11:15:36;;;;;;;17.47;9.13;;;;;;;1.19;91.01;95963.76;1773687;81;21059;-72
2021/12/13 11:18:08;;;;;;;19.83;10.80;;;;;;;1.20;90.71;95962.91;1746270;82;20992;-72
2021/12/13 11:20:43;;;;;;;22.70;11.83;;;;;;;1.24;90.58;95964.74;1773409;80;21078;-73
2021/12/13 11:23:14;;;;;;;17.77;9.97;;;;;;;1.25;90.42;95965.19;1746462;82;20984;-73
2021/12/13 11:25:46;;;;;;;15.60;10.20;;;;;;;1.29;90.33;95968.33;1773775;80;21051;-73
2021/12/13 11:28:15;;;;;;;18.83;11.50;;;;;;;1.29;90.19;95961.39;1773678;81;21041;-73
2021/12/13 11:30:44;;;;;;;19.30;10.93;;;;;;;1.30;90.03;95959.67;1746233;82;21107;-73
2021/12/13 11:33:22;;;;;;;16.17;8.63;;;;;;;1.27;90.09;95960.48;1773769;81;21557;-73
2021/12/13 11:36:10;;;;;;;14.07;8.37;;;;;;;1.23;90.00;95961.23;1771384;81;21042;-73
2021/12/13 11:39:32;;;;;;;14.43;9.03;;;;;;;1.23;90.00;95961.23;1727594;82;21035;-73
2021/12/13 11:42:45;;;;;;;14.10;8.50;;;;;;;1.28;90.13;95964.82;1776109;81;21010;-72
2021/12/13 11:45:54;;;;;;;17.27;8.97;;;;;;;1.29;89.99;95971.80;1776611;81;21062;-71
2021/12/13 11:48:48;;;;;;;15.83;9.07;;;;;;;1.36;89.96;95973.22;1776208;81;21562;-72
2021/12/13 11:51:54;;;;;;;15.75;9.48;;;;;;;1.35;89.89;95971.48;1735641;81;21494;-72
2021/12/13 11:55:02;;;;;;;15.67;9.97;;;;;;;1.39;89.94;95966.81;1776090;81;21526;-72
2021/12/13 11:58:10;;;;;;;16.50;10.30;;;;;;;1.40;89.54;95962.06;1775948;81;21006;-72
2021/12/13 12:01:02;;;;;;;15.13;9.27;;;;;;;1.39;89.62;95961.19;1776113;81;21101;-72
2021/12/13 12:04:10;;;;;;;20.60;12.23;;;;;;;1.38;89.51;95959.41;1775147;80;21504;-71
2021/12/13 12:07:00;;;;;;;19.67;12.80;;;;;;;1.46;89.73;95963.48;1770766;81;21509;-73
2021/12/13 12:09:52;;;;;;;17.47;9.47;;;;;;;1.52;89.81;95964.94;1773364;80;20998;-73
2021/12/13 12:12:57;;;;;;;15.93;10.03;;;;;;;1.58;89.55;95969.39;1775996;81;20971;-73
2021/12/13 12:15:27;;;;;;;15.80;9.53;;;;;;;1.61;89.47;95969.02;1776300;81;21011;-73
2021/12/13 12:17:58;;;;;;;20.47;11.37;;;;;;;1.51;89.13;95968.36;1776258;81;21069;-73
2021/12/13 12:20:35;;;;;;;18.23;10.13;;;;;;;1.54;89.10;95967.55;1776502;80;21453;-73
2021/12/13 12:23:08;;;;;;;15.33;9.87;;;;;;;1.55;89.21;95957.62;1776114;81;21528;-73
2021/12/13 12:25:39;;;;;;;13.87;8.13;;;;;;;1.56;89.10;95960.67;1776381;80;20963;-72
2021/12/13 12:28:11;;;;;;;14.97;9.10;;;;;;;1.53;89.01;95960.61;1776453;81;21121;-71